Marquette, KS (67464)

5:12 AM CST on December 18, 2014 (GMT -0600)
Koki's Pond | Change Station
CLOSE
Current Station
Personal Weather Station
Location: Lindsborg, KS
Elevation: 1480 ft
Nearby Weather Stations
Active Advisory: Winter Weather Advisory

Elev 1480 ft 38.52 °N, 97.66 °W | Updated 2 seconds ago

Overcast
Overcast
27.5 °F
Feels Like 28 °F
N
0.0
Wind Variable Wind from North
Gusts 0.0 mph

Today
High -- | Low -- °F
--% Chance of Precip.
Yesterday
High -- | Low -- °F
Precip. -- in
7:43 AM 5:12 PM
Waning Crescent, 15% visible
Pressure 30.20 in
Visibility 7.0 miles
Clouds Mostly Cloudy 600 ft
Overcast 2700 ft
Windchill 28 °F
Dew Point 26 °F
Humidity 94%
Rainfall 0.00 in
Snow Depth Not available.
UV 0.0 out of 12
Pollen .10 out of 12
Air Quality Not available.
Flu Activity Not available.
METAR KSLN 181053Z 04004KT 7SM BKN006 OVC027 M02/M04 A3016 RMK AO2 SNE09 SLP226 P0000 T10221039

More Conditions Fewer Conditions

Pressure 30.20 in
Visibility 7.0 miles
Clouds Mostly Cloudy 600 ft
Overcast 2700 ft
Windchill 28 °F
Dew Point 26 °F
Humidity 94%
Rainfall 0.00 in
Snow Depth Not available.
UV 0.0 out of 12
Pollen .10 out of 12
Air Quality Not available.
Flu Activity Not available.
METAR KSLN 181053Z 04004KT 7SM BKN006 OVC027 M02/M04 A3016 RMK AO2 SNE09 SLP226 P0000 T10221039

More Conditions Fewer Conditions

10-Day Weather Forecast

Almanac

Astronomy

Dec. 18, 2014 Rise Set
Actual Time
Civil Twilight
Nautical Twilight
Astronomical Twilight
Moon
Length of Visible Light
Length of Day
Tomorrow will be .
, % of the Moon is Illuminated

Today's Extremes

State Highs State Lows

Community

WunderPhotos

Upload Photos

1,778,917 photos uploaded!

WunderBlogs® & News

Nearby

Air Quality

  Air Quality AQ Index Pollutant
Not available.

Snow Depth

Station Depth Elevation

Earthquake Activity

City Distance Mag. Time & Date
Minimum magnitude displayed is 2.5.

Coastal Water Temperatures

Place Temperature

Nearby Weather Stations